Time;durP1;ratioP1;P1;durP2;ratioP2;P2;SDS_P1;SDS_P2;PMS_P1;PMS_P2;Temp;Humidity;BMP_temperature;BMP_pressure;BME280_temperature;BME280_humidity;BME280_pressure;Samples;Min_cycle;Max_cycle;Signal;HPM_P1;HPM_P2
2022/07/22 00:00:59;;;;;;;14.75;9.23;;;;;;;17.60;80.24;100158.50;5025453;28;20140;-64
2022/07/22 00:03:26;;;;;;;15.85;7.88;;;;;;;17.59;80.27;100159.47;5024286;28;20052;-66
2022/07/22 00:05:53;;;;;;;12.05;8.13;;;;;;;17.59;80.33;100156.78;5024383;28;20052;-65
2022/07/22 00:08:19;;;;;;;16.75;9.02;;;;;;;17.56;80.31;100159.69;5024750;28;20041;-64
2022/07/22 00:10:48;;;;;;;23.80;10.70;;;;;;;17.58;80.20;100160.44;5024574;28;20049;-66
2022/07/22 00:13:14;;;;;;;20.30;10.82;;;;;;;17.57;79.78;100153.38;5024572;28;20136;-66
2022/07/22 00:15:41;;;;;;;16.42;8.38;;;;;;;17.56;79.65;100154.34;5024544;28;20049;-64
2022/07/22 00:18:08;;;;;;;18.60;9.57;;;;;;;17.53;80.07;100158.09;5012461;28;20885;-65
2022/07/22 00:20:35;;;;;;;16.77;8.75;;;;;;;17.55;80.53;100156.19;5018382;28;20053;-66
2022/07/22 00:23:02;;;;;;;16.25;9.95;;;;;;;17.56;80.25;100157.03;5025174;28;20053;-63
2022/07/22 00:25:29;;;;;;;16.02;10.38;;;;;;;17.55;80.02;100156.19;5024190;28;20057;-66
2022/07/22 00:27:57;;;;;;;22.15;9.10;;;;;;;17.54;79.39;100153.63;5024305;28;20405;-65
2022/07/22 00:30:23;;;;;;;18.92;8.23;;;;;;;17.54;80.20;100161.59;5024620;28;20049;-66
2022/07/22 00:32:50;;;;;;;18.85;8.75;;;;;;;17.50;80.26;100153.00;5024695;28;20057;-65
2022/07/22 00:35:17;;;;;;;18.00;10.35;;;;;;;17.48;80.18;100143.41;5005913;28;20069;-65
2022/07/22 00:37:43;;;;;;;15.85;8.68;;;;;;;17.47;80.39;100147.88;5005210;28;20089;-65
2022/07/22 00:40:11;;;;;;;11.38;8.07;;;;;;;17.49;80.36;100145.94;5005538;28;20049;-64
2022/07/22 00:42:38;;;;;;;14.05;8.82;;;;;;;17.48;80.44;100148.75;5005108;28;20054;-65
2022/07/22 00:45:08;;;;;;;20.77;10.45;;;;;;;17.51;80.19;100143.19;5004217;28;20049;-65
2022/07/22 00:47:35;;;;;;;17.23;8.82;;;;;;;17.51;79.95;100148.50;5004991;28;20045;-65
2022/07/22 00:50:02;;;;;;;17.35;8.55;;;;;;;17.55;79.66;100144.66;5004995;28;20052;-66
2022/07/22 00:52:29;;;;;;;20.38;8.82;;;;;;;17.58;80.08;100144.44;5005705;28;20058;-65
2022/07/22 00:54:56;;;;;;;13.40;8.40;;;;;;;17.56;79.71;100141.03;5005848;28;20054;-65
2022/07/22 00:57:23;;;;;;;21.23;9.80;;;;;;;17.57;79.52;100143.59;5007939;28;20058;-65
2022/07/22 00:59:49;;;;;;;16.92;8.45;;;;;;;17.55;79.65;100136.66;5011290;28;20048;-65
2022/07/22 01:02:18;;;;;;;11.75;6.82;;;;;;;17.55;79.50;100126.00;4987832;28;20058;-65
2022/07/22 01:04:44;;;;;;;22.98;9.15;;;;;;;17.59;79.26;100135.47;5015473;28;20136;-65
2022/07/22 01:07:11;;;;;;;28.48;9.85;;;;;;;17.56;79.40;100130.38;5029882;28;20077;-65
2022/07/22 01:09:38;;;;;;;15.32;7.78;;;;;;;17.56;79.32;100135.69;5029872;28;20578;-64
2022/07/22 01:12:05;;;;;;;15.32;9.10;;;;;;;17.57;79.60;100129.38;5029684;28;20056;-64
2022/07/22 01:14:32;;;;;;;15.68;8.18;;;;;;;17.56;79.92;100133.03;5028506;28;20107;-65
2022/07/22 01:16:58;;;;;;;18.38;9.95;;;;;;;17.54;79.50;100132.28;5026560;28;20122;-65
2022/07/22 01:19:26;;;;;;;22.48;9.75;;;;;;;17.53;79.29;100135.94;5010341;28;20141;-65
2022/07/22 01:21:54;;;;;;;14.88;7.55;;;;;;;17.51;79.20;100127.19;5011955;28;20042;-64
2022/07/22 01:24:21;;;;;;;12.13;6.25;;;;;;;17.52;79.49;100134.22;5028891;28;20531;-65
2022/07/22 01:26:48;;;;;;;17.45;8.55;;;;;;;17.53;79.22;100131.44;5031415;28;20051;-64
2022/07/22 01:29:14;;;;;;;11.00;7.00;;;;;;;17.52;78.71;100127.09;5029795;28;20864;-65
2022/07/22 01:31:41;;;;;;;13.38;8.35;;;;;;;17.55;78.88;100134.00;5028141;28;20112;-64
2022/07/22 01:34:08;;;;;;;11.57;6.97;;;;;;;17.52;78.75;100123.53;5028745;28;20127;-64
2022/07/22 01:36:35;;;;;;;13.30;8.18;;;;;;;17.51;77.88;100128.03;5027211;28;20045;-64
2022/07/22 01:39:03;;;;;;;15.07;6.72;;;;;;;17.49;77.17;100127.28;5027608;28;20057;-64
2022/07/22 01:41:30;;;;;;;15.30;7.88;;;;;;;17.49;76.96;100124.63;5027350;28;20395;-64
2022/07/22 01:43:57;;;;;;;11.50;6.18;;;;;;;17.49;76.57;100132.63;5027019;28;20045;-64
2022/07/22 01:46:24;;;;;;;9.93;6.75;;;;;;;17.48;76.46;100122.94;5026824;28;20456;-64
2022/07/22 01:48:51;;;;;;;9.85;5.88;;;;;;;17.47;74.61;100125.69;5025574;28;20064;-63
2022/07/22 01:51:18;;;;;;;10.73;5.32;;;;;;;17.47;73.93;100136.34;5026853;28;20053;-64
2022/07/22 01:53:45;;;;;;;10.18;5.22;;;;;;;17.47;74.06;100137.19;5025399;28;20052;-64
2022/07/22 01:56:13;;;;;;;7.40;4.53;;;;;;;17.47;73.19;100126.53;5025778;28;20711;-65
2022/07/22 01:58:40;;;;;;;9.77;4.57;;;;;;;17.49;73.27;100129.09;5016248;28;20072;-65
2022/07/22 02:01:07;;;;;;;16.10;6.10;;;;;;;17.50;73.38;100134.34;5007097;28;20060;-64
2022/07/22 02:03:34;;;;;;;8.77;4.55;;;;;;;17.51;72.63;100127.19;5007083;28;20061;-65
2022/07/22 02:06:00;;;;;;;11.30;4.95;;;;;;;17.53;72.30;100130.59;5006386;28;20096;-66
2022/07/22 02:08:27;;;;;;;18.38;6.53;;;;;;;17.53;73.25;100126.09;5006189;28;20062;-65
2022/07/22 02:10:54;;;;;;;8.73;5.07;;;;;;;17.53;74.01;100131.44;5006109;28;20050;-65
2022/07/22 02:13:22;;;;;;;12.52;5.63;;;;;;;17.55;74.94;100126.00;5006688;28;20050;-65
2022/07/22 02:15:48;;;;;;;16.30;6.75;;;;;;;17.58;75.35;100123.09;5006213;28;20049;-65
2022/07/22 02:18:17;;;;;;;14.98;6.63;;;;;;;17.55;75.86;100118.00;5006412;28;20064;-66
2022/07/22 02:20:44;;;;;;;19.33;9.63;;;;;;;17.50;75.95;100120.13;5008338;28;20054;-66
2022/07/22 02:23:11;;;;;;;12.43;8.00;;;;;;;17.42;76.72;100115.38;5026725;28;20052;-66
2022/07/22 02:25:39;;;;;;;20.13;8.55;;;;;;;17.39;77.41;100118.25;5024710;28;20049;-65
2022/07/22 02:28:05;;;;;;;21.17;10.25;;;;;;;17.39;77.57;100108.44;5007509;28;20049;-65
2022/07/22 02:30:34;;;;;;;15.55;10.95;;;;;;;17.43;77.95;100111.75;5006049;28;20077;-65
2022/07/22 02:33:00;;;;;;;16.42;8.85;;;;;;;17.40;77.92;100109.31;5005849;28;20054;-65
2022/07/22 02:35:27;;;;;;;14.23;7.03;;;;;;;17.39;78.25;100110.25;5004968;28;20053;-64
2022/07/22 02:37:54;;;;;;;21.00;9.23;;;;;;;17.38;78.45;100108.56;5005851;28;20077;-64
2022/07/22 02:40:20;;;;;;;19.95;9.68;;;;;;;17.30;78.46;100111.78;5005811;28;20061;-64
2022/07/22 02:42:47;;;;;;;13.00;7.80;;;;;;;17.30;78.70;100102.91;5005527;28;20056;-64
2022/07/22 02:45:14;;;;;;;17.95;6.90;;;;;;;17.27;78.65;100104.00;5005026;28;20422;-65
2022/07/22 02:47:50;;;;;;;18.48;7.75;;;;;;;17.25;78.09;100100.59;5006046;28;20057;-64
2022/07/22 02:50:17;;;;;;;11.63;7.15;;;;;;;17.24;78.00;100098.06;5005225;28;20045;-65
2022/07/22 02:52:43;;;;;;;12.63;6.70;;;;;;;17.22;77.39;100102.63;5005694;28;20050;-65
2022/07/22 02:55:10;;;;;;;15.30;7.72;;;;;;;17.22;77.22;100099.97;5005146;28;20054;-65
2022/07/22 02:57:38;;;;;;;16.58;7.10;;;;;;;17.24;77.76;100100.72;5018617;28;20060;-65
2022/07/22 03:00:06;;;;;;;8.52;5.45;;;;;;;17.27;77.54;100095.16;5025024;28;20053;-65
2022/07/22 03:02:33;;;;;;;13.23;6.40;;;;;;;17.25;77.00;100091.75;5025275;28;20509;-64
2022/07/22 03:05:01;;;;;;;13.63;6.75;;;;;;;17.19;77.25;100101.03;5024448;28;20416;-65
2022/07/22 03:07:28;;;;;;;12.55;6.05;;;;;;;17.14;77.79;100096.03;5024758;28;20056;-64
2022/07/22 03:09:54;;;;;;;12.60;6.18;;;;;;;17.15;77.50;100102.22;5024885;28;20056;-65
2022/07/22 03:12:21;;;;;;;15.10;6.53;;;;;;;17.17;77.71;100094.97;5025299;28;20057;-64
2022/07/22 03:14:47;;;;;;;9.35;5.70;;;;;;;17.15;77.09;100094.22;5023831;28;20050;-65
2022/07/22 03:17:14;;;;;;;11.30;6.25;;;;;;;17.15;76.10;100086.22;5024393;28;20053;-64
2022/07/22 03:19:41;;;;;;;9.02;5.63;;;;;;;17.16;75.81;100082.63;5025365;28;20525;-64
2022/07/22 03:22:09;;;;;;;9.30;6.15;;;;;;;17.17;75.87;100085.16;5025133;28;20045;-64
2022/07/22 03:24:36;;;;;;;9.48;4.70;;;;;;;17.10;75.68;100089.22;5024472;28;20041;-64
2022/07/22 03:27:05;;;;;;;8.52;5.32;;;;;;;17.12;75.36;100087.28;5025406;28;20597;-64
2022/07/22 03:29:31;;;;;;;9.13;4.80;;;;;;;17.08;74.77;100092.94;5024802;28;20599;-65
2022/07/22 03:31:58;;;;;;;6.50;4.00;;;;;;;17.02;74.44;100088.91;5024786;28;20045;-64
2022/07/22 03:34:25;;;;;;;12.85;4.43;;;;;;;17.05;74.09;100086.03;5023700;28;20053;-64
2022/07/22 03:36:51;;;;;;;6.65;4.15;;;;;;;17.08;72.68;100088.50;5024625;28;20050;-64
2022/07/22 03:39:19;;;;;;;7.53;4.20;;;;;;;17.09;73.22;100084.88;5024459;28;20056;-64
2022/07/22 03:41:46;;;;;;;6.65;4.03;;;;;;;17.11;73.69;100085.59;5023999;28;20053;-64
2022/07/22 03:44:12;;;;;;;5.15;4.18;;;;;;;17.14;73.18;100081.88;5023813;28;20049;-65
2022/07/22 03:46:39;;;;;;;6.35;4.00;;;;;;;17.16;72.75;100082.63;5024905;28;20051;-65
2022/07/22 03:49:05;;;;;;;7.30;4.07;;;;;;;17.16;73.10;100082.63;5024449;28;20057;-64
2022/07/22 03:51:32;;;;;;;7.53;4.53;;;;;;;17.23;72.88;100086.53;5024422;28;20048;-64
2022/07/22 03:53:59;;;;;;;5.10;3.78;;;;;;;17.25;72.06;100084.59;5023817;28;20049;-65
2022/07/22 03:56:26;;;;;;;6.22;4.28;;;;;;;17.20;72.73;100086.75;5024415;28;20136;-65
2022/07/22 03:58:53;;;;;;;6.07;5.13;;;;;;;17.19;72.50;100084.22;5024278;28;20049;-64
2022/07/22 04:01:20;;;;;;;10.52;5.97;;;;;;;17.19;72.05;100084.22;5024856;28;20053;-64
2022/07/22 04:03:46;;;;;;;7.03;5.45;;;;;;;17.12;72.52;100084.63;5024727;28;20056;-65
2022/07/22 04:06:13;;;;;;;5.93;5.32;;;;;;;17.08;72.76;100084.97;5023340;28;20516;-65
2022/07/22 04:08:39;;;;;;;6.43;5.05;;;;;;;17.15;72.59;100083.56;5016954;28;20049;-65
2022/07/22 04:11:06;;;;;;;8.05;4.93;;;;;;;17.19;72.68;100092.22;5003924;28;20135;-65
2022/07/22 04:13:34;;;;;;;8.02;4.85;;;;;;;17.17;71.30;100093.16;5009190;28;20850;-64
2022/07/22 04:16:01;;;;;;;8.20;4.10;;;;;;;17.19;71.32;100089.53;5015665;28;20417;-64
2022/07/22 04:18:27;;;;;;;10.63;5.22;;;;;;;17.21;71.58;100096.47;5009663;28;20058;-64
2022/07/22 04:20:54;;;;;;;7.78;4.72;;;;;;;17.15;70.39;100100.44;5004554;28;20049;-64
2022/07/22 04:23:20;;;;;;;7.50;5.07;;;;;;;17.06;70.84;100094.91;5004877;28;20133;-64
2022/07/22 04:25:47;;;;;;;9.63;5.28;;;;;;;16.95;72.10;100101.81;5004293;28;20061;-64
2022/07/22 04:28:14;;;;;;;9.00;5.88;;;;;;;16.88;73.13;100089.91;5004914;28;20054;-64
2022/07/22 04:30:42;;;;;;;12.88;7.70;;;;;;;16.91;74.16;100097.69;5004846;28;20060;-64
2022/07/22 04:33:08;;;;;;;9.57;6.78;;;;;;;16.87;75.21;100095.34;5006852;28;20061;-64
2022/07/22 04:35:35;;;;;;;8.88;6.10;;;;;;;16.85;75.63;100089.28;5007176;28;20053;-64
2022/07/22 04:38:01;;;;;;;14.02;7.22;;;;;;;16.85;76.00;100094.59;5007873;28;20050;-63
2022/07/22 04:40:28;;;;;;;8.55;6.03;;;;;;;16.80;76.56;100081.59;5008142;28;20080;-65
2022/07/22 04:42:55;;;;;;;14.63;6.28;;;;;;;16.83;77.08;100083.19;5007964;28;20046;-66
2022/07/22 04:45:21;;;;;;;10.45;6.30;;;;;;;16.79;77.10;100076.41;5007145;28;20069;-65
2022/07/22 04:47:49;;;;;;;13.05;6.82;;;;;;;16.75;77.77;100086.38;5007747;28;20045;-63
2022/07/22 04:50:16;;;;;;;8.13;6.53;;;;;;;16.71;78.23;100090.19;5007912;28;20060;-64
2022/07/22 04:52:42;;;;;;;11.32;7.00;;;;;;;16.73;78.58;100089.13;5008420;28;20517;-64
2022/07/22 04:55:09;;;;;;;11.65;7.25;;;;;;;16.73;79.12;100083.81;5007589;28;20061;-64
2022/07/22 04:57:36;;;;;;;8.30;6.70;;;;;;;16.67;79.77;100080.75;5008214;28;20045;-64
2022/07/22 05:00:04;;;;;;;13.48;7.78;;;;;;;16.71;79.46;100082.22;5007800;28;20057;-63
2022/07/22 05:02:30;;;;;;;12.05;7.90;;;;;;;16.70;79.98;100081.34;5007807;28;20501;-64
2022/07/22 05:04:59;;;;;;;12.60;7.72;;;;;;;16.72;80.02;100087.44;5007249;28;20053;-64
2022/07/22 05:07:25;;;;;;;14.75;9.18;;;;;;;16.77;79.62;100079.13;5026555;28;20058;-65
2022/07/22 05:09:52;;;;;;;8.10;6.43;;;;;;;16.86;79.43;100075.84;5026711;28;20048;-66
2022/07/22 05:12:19;;;;;;;12.80;7.35;;;;;;;16.92;78.86;100077.22;5026937;28;20429;-65
2022/07/22 05:14:45;;;;;;;17.75;9.60;;;;;;;16.94;78.37;100078.81;5026467;28;20060;-65
2022/07/22 05:17:13;;;;;;;13.88;9.40;;;;;;;16.88;77.92;100079.28;5027369;28;20144;-65
2022/07/22 05:19:39;;;;;;;15.90;7.53;;;;;;;16.88;77.88;100078.41;5027111;28;20519;-66
2022/07/22 05:22:08;;;;;;;9.85;7.53;;;;;;;16.88;77.33;100075.72;5027222;28;20845;-66
2022/07/22 05:24:35;;;;;;;9.00;6.35;;;;;;;16.91;76.30;100084.38;5026085;28;20057;-65
2022/07/22 05:27:02;;;;;;;11.50;6.22;;;;;;;16.94;75.04;100080.63;5027333;28;20128;-65
2022/07/22 05:29:28;;;;;;;9.50;6.10;;;;;;;16.91;72.63;100076.38;5027153;28;20459;-65
2022/07/22 05:31:55;;;;;;;6.35;5.28;;;;;;;16.94;71.41;100076.16;5027288;28;20045;-65
2022/07/22 05:34:22;;;;;;;10.70;4.47;;;;;;;17.05;70.27;100071.88;5027028;28;20057;-65
2022/07/22 05:36:48;;;;;;;6.15;3.80;;;;;;;17.16;69.71;100069.28;5026916;28;20046;-65
2022/07/22 05:39:17;;;;;;;10.05;4.05;;;;;;;17.22;70.20;100074.16;5026764;28;20203;-65
2022/07/22 05:41:43;;;;;;;11.38;4.80;;;;;;;17.11;70.72;100071.44;5026495;28;20099;-65
2022/07/22 05:44:10;;;;;;;7.05;4.88;;;;;;;17.08;69.85;100071.63;5025811;28;20053;-64
2022/07/22 05:46:37;;;;;;;8.40;4.07;;;;;;;17.07;69.64;100072.63;5027732;28;20428;-66
2022/07/22 05:49:03;;;;;;;10.63;4.07;;;;;;;17.19;69.10;100079.72;5026583;28;20049;-66
2022/07/22 05:51:30;;;;;;;12.55;4.20;;;;;;;17.17;68.52;100082.50;5026688;28;20065;-66
2022/07/22 05:53:57;;;;;;;6.82;4.80;;;;;;;17.17;68.41;100082.50;5026551;28;20513;-66
2022/07/22 05:56:24;;;;;;;7.30;3.70;;;;;;;17.21;68.33;100079.63;5026987;28;20053;-65
2022/07/22 05:58:51;;;;;;;8.70;5.13;;;;;;;17.17;68.18;100071.84;5026197;28;20056;-65
2022/07/22 06:01:17;;;;;;;7.65;4.65;;;;;;;17.15;68.14;100071.13;5026642;28;20909;-65
2022/07/22 06:03:44;;;;;;;7.53;4.63;;;;;;;17.19;68.58;100069.06;5027553;28;20763;-65
2022/07/22 06:06:11;;;;;;;7.38;4.70;;;;;;;17.24;68.68;100074.06;5025842;28;20081;-65
2022/07/22 06:08:38;;;;;;;11.57;5.07;;;;;;;17.32;68.16;100066.34;5018913;28;20454;-65
2022/07/22 06:11:04;;;;;;;8.38;5.07;;;;;;;17.26;67.72;100074.81;5008365;28;20734;-65
2022/07/22 06:13:33;;;;;;;6.40;5.13;;;;;;;17.23;69.24;100070.56;5026389;28;20064;-64
2022/07/22 06:16:00;;;;;;;8.85;4.38;;;;;;;17.32;69.04;100064.53;5024852;28;20053;-64
2022/07/22 06:18:27;;;;;;;6.90;4.72;;;;;;;17.37;69.01;100064.22;5011598;28;20064;-65
2022/07/22 06:20:53;;;;;;;9.38;5.65;;;;;;;17.45;68.60;100068.97;5006034;28;20521;-66
2022/07/22 06:23:20;;;;;;;8.80;4.97;;;;;;;17.39;68.52;100076.47;5006135;28;20050;-64
2022/07/22 06:25:46;;;;;;;10.68;4.40;;;;;;;17.39;69.30;100067.63;5005162;28;20136;-64
2022/07/22 06:28:13;;;;;;;7.15;4.90;;;;;;;17.44;68.75;100067.28;5006329;28;20065;-64
2022/07/22 06:30:41;;;;;;;8.70;3.97;;;;;;;17.55;69.21;100062.03;5005877;28;20053;-65
2022/07/22 06:33:08;;;;;;;8.02;4.72;;;;;;;17.67;69.36;100061.13;5005769;28;20065;-65
2022/07/22 06:38:36;;;;;;;5.93;4.65;;;;;;;17.52;66.65;100070.22;5004405;28;20057;-65
2022/07/22 06:41:03;;;;;;;9.68;4.25;;;;;;;17.57;67.51;100062.75;5005761;28;20073;-65
2022/07/22 06:43:29;;;;;;;6.60;4.20;;;;;;;17.77;66.76;100067.47;5006475;28;20052;-66
2022/07/22 06:45:57;;;;;;;8.32;5.22;;;;;;;17.80;66.26;100069.91;5005040;28;20050;-64
2022/07/22 06:48:24;;;;;;;5.95;4.88;;;;;;;17.75;66.03;100065.88;5005695;28;20058;-65
2022/07/22 06:50:51;;;;;;;11.40;5.28;;;;;;;17.84;65.46;100069.69;5005784;28;20058;-66
2022/07/22 06:53:17;;;;;;;10.35;5.38;;;;;;;17.89;65.69;100068.38;5005754;28;20062;-65
2022/07/22 06:55:44;;;;;;;9.82;8.02;;;;;;;17.99;65.51;100064.06;5004798;28;20042;-65
2022/07/22 06:58:11;;;;;;;11.07;7.70;;;;;;;18.13;65.25;100060.31;5006063;28;20061;-65
2022/07/22 07:00:37;;;;;;;9.80;8.73;;;;;;;18.13;64.88;100057.66;5006143;28;20083;-65
2022/07/22 07:03:05;;;;;;;11.60;10.35;;;;;;;18.12;64.53;100057.78;5020686;28;20575;-65
2022/07/22 07:05:32;;;;;;;16.23;11.18;;;;;;;18.13;64.01;100052.31;5024317;28;20065;-65
2022/07/22 07:07:58;;;;;;;14.07;11.07;;;;;;;18.20;64.03;100053.56;5023054;28;20053;-64
2022/07/22 07:10:25;;;;;;;15.55;12.48;;;;;;;18.23;63.48;100055.13;5005266;28;20125;-65
2022/07/22 07:12:56;;;;;;;16.17;10.40;;;;;;;18.26;63.77;100054.06;5005748;28;20053;-65
2022/07/22 07:15:23;;;;;;;17.30;10.68;;;;;;;18.23;64.40;100052.47;5007265;28;20056;-65
2022/07/22 07:17:50;;;;;;;13.95;11.68;;;;;;;18.27;64.16;100047.75;5015489;28;20050;-65
2022/07/22 07:20:17;;;;;;;14.25;11.52;;;;;;;18.28;64.22;100052.13;5005291;28;20129;-65
2022/07/22 07:22:44;;;;;;;16.20;12.65;;;;;;;18.24;63.69;100048.84;5004966;28;20046;-65
2022/07/22 07:25:11;;;;;;;13.57;12.18;;;;;;;18.15;63.98;100050.41;5005235;28;20064;-65
2022/07/22 07:27:37;;;;;;;19.95;13.02;;;;;;;18.21;63.89;100055.28;5008274;28;20577;-65
2022/07/22 07:30:05;;;;;;;15.82;13.55;;;;;;;18.27;63.96;100050.44;5006735;28;20812;-64
2022/07/22 07:32:32;;;;;;;15.98;13.68;;;;;;;18.32;64.08;100051.78;5006724;28;20057;-65
2022/07/22 07:34:58;;;;;;;16.10;13.07;;;;;;;18.24;63.65;100043.50;5004602;28;20057;-64
2022/07/22 07:37:26;;;;;;;14.60;13.05;;;;;;;18.19;64.30;100053.69;5004639;28;20057;-63
2022/07/22 07:39:53;;;;;;;18.08;13.02;;;;;;;18.18;64.24;100050.16;5004970;28;20053;-65
2022/07/22 07:42:19;;;;;;;20.10;17.17;;;;;;;18.26;64.10;100049.56;5004955;28;20532;-65
2022/07/22 07:44:46;;;;;;;12.52;10.25;;;;;;;18.48;63.30;100048.75;5004108;28;20054;-65
2022/07/22 07:47:17;;;;;;;21.27;17.10;;;;;;;18.41;62.75;100050.19;5005157;28;20140;-65
2022/07/22 07:49:43;;;;;;;20.55;14.85;;;;;;;18.24;64.33;100051.53;5005143;28;20057;-65
2022/07/22 07:52:10;;;;;;;19.77;14.55;;;;;;;18.27;64.13;100047.75;5005094;28;20060;-65
2022/07/22 07:54:38;;;;;;;19.20;17.25;;;;;;;18.38;63.52;100048.59;5004166;28;20133;-65
2022/07/22 07:57:05;;;;;;;21.65;16.95;;;;;;;18.47;63.73;100043.53;5004662;28;20049;-65
2022/07/22 07:59:32;;;;;;;19.95;18.05;;;;;;;18.65;63.21;100056.28;5016884;28;20092;-65
2022/07/22 08:01:58;;;;;;;19.85;17.88;;;;;;;18.98;61.96;100051.13;5024186;28;20064;-66
2022/07/22 08:04:25;;;;;;;20.55;16.50;;;;;;;19.09;61.21;100054.59;5023864;28;20616;-65
2022/07/22 08:06:52;;;;;;;17.20;15.52;;;;;;;19.21;61.16;100057.28;5024621;28;20056;-64
2022/07/22 08:09:18;;;;;;;20.30;17.15;;;;;;;19.32;61.41;100046.56;5015399;28;20054;-65
2022/07/22 08:11:46;;;;;;;20.92;18.50;;;;;;;19.38;60.35;100045.22;5025808;28;20053;-64
2022/07/22 08:14:13;;;;;;;21.77;18.45;;;;;;;19.32;60.23;100049.25;5028296;28;20065;-64
2022/07/22 08:16:39;;;;;;;19.67;17.60;;;;;;;19.07;61.47;100048.56;5028402;28;20491;-65
2022/07/22 08:19:06;;;;;;;18.38;16.08;;;;;;;19.19;61.27;100049.38;5008783;28;20428;-65
2022/07/22 08:21:33;;;;;;;19.40;17.38;;;;;;;19.27;60.48;100046.06;5008500;28;20054;-64
2022/07/22 08:23:59;;;;;;;23.60;15.63;;;;;;;19.35;60.88;100042.78;5007927;28;20501;-66
2022/07/22 08:26:26;;;;;;;23.77;18.33;;;;;;;19.25;61.18;100051.56;5008358;28;20057;-65
2022/07/22 08:28:54;;;;;;;20.60;17.67;;;;;;;19.41;60.55;100042.28;5008367;28;20045;-65
2022/07/22 08:31:21;;;;;;;20.45;16.90;;;;;;;19.58;60.04;100044.41;5008316;28;20064;-65
2022/07/22 08:33:48;;;;;;;19.48;17.02;;;;;;;19.67;60.04;100046.34;5008145;28;20065;-65
2022/07/22 08:36:14;;;;;;;18.90;15.20;;;;;;;19.69;59.93;100046.22;5008172;28;20522;-65
2022/07/22 08:38:41;;;;;;;18.70;15.85;;;;;;;19.68;59.75;100048.03;5008037;28;20693;-66
2022/07/22 08:41:07;;;;;;;19.30;17.30;;;;;;;19.63;58.68;100039.53;5007774;28;20157;-65
2022/07/22 08:43:37;;;;;;;20.65;17.15;;;;;;;19.66;58.84;100049.13;5008061;28;20046;-65
2022/07/22 08:46:05;;;;;;;18.13;16.15;;;;;;;19.77;58.69;100049.13;5007737;28;20054;-65
2022/07/22 08:48:32;;;;;;;22.33;16.45;;;;;;;20.02;58.44;100031.00;5007667;28;20803;-65
2022/07/22 08:50:58;;;;;;;17.77;15.20;;;;;;;20.46;57.29;100035.22;5008144;28;20137;-65
2022/07/22 08:53:25;;;;;;;19.25;16.98;;;;;;;20.35;57.68;100044.19;5007430;28;20050;-65
2022/07/22 08:55:52;;;;;;;20.83;16.55;;;;;;;20.27;58.19;100030.59;5019809;28;20045;-67
2022/07/22 08:58:18;;;;;;;22.70;17.30;;;;;;;20.43;57.69;100038.16;5026772;28;20060;-65
2022/07/22 09:00:45;;;;;;;21.35;17.95;;;;;;;20.36;58.02;100037.00;5027732;28;20152;-65
2022/07/22 09:03:22;;;;;;;25.25;16.85;;;;;;;20.48;58.12;100048.50;5027741;28;20578;-65
2022/07/22 09:05:50;;;;;;;19.67;15.50;;;;;;;20.64;57.10;100037.31;5026125;28;20045;-66
2022/07/22 09:08:17;;;;;;;19.70;17.00;;;;;;;21.10;56.39;100041.28;5022465;28;20060;-65
2022/07/22 09:10:43;;;;;;;19.42;15.52;;;;;;;21.58;54.46;100041.38;5022129;28;20057;-65
2022/07/22 09:13:11;;;;;;;18.20;15.52;;;;;;;21.36;55.34;100046.97;5027268;28;20083;-65
2022/07/22 09:15:40;;;;;;;16.90;15.10;;;;;;;21.79;54.00;100035.06;5026485;28;20063;-65
2022/07/22 09:18:09;;;;;;;16.80;15.02;;;;;;;22.63;52.16;100034.34;5014902;28;20081;-65
2022/07/22 09:20:38;;;;;;;24.23;14.10;;;;;;;22.75;52.14;100026.97;5007437;28;20142;-64
2022/07/22 09:23:11;;;;;;;21.33;16.58;;;;;;;23.19;50.08;100029.88;5007449;28;20057;-65
2022/07/22 09:25:39;;;;;;;16.27;14.57;;;;;;;23.65;49.20;100023.44;5007292;28;20144;-65
2022/07/22 09:28:15;;;;;;;16.13;13.27;;;;;;;24.26;47.92;100020.94;5007308;28;20050;-65
2022/07/22 09:30:49;;;;;;;14.35;12.93;;;;;;;24.38;47.64;100015.13;5007672;28;20045;-65
2022/07/22 09:33:17;;;;;;;16.10;14.32;;;;;;;24.52;46.60;100015.59;5007572;28;20080;-64
2022/07/22 09:35:46;;;;;;;16.67;13.20;;;;;;;24.98;46.11;100013.41;5007077;28;20498;-64
2022/07/22 09:38:14;;;;;;;15.48;12.60;;;;;;;24.93;45.54;100019.28;5007116;28;20437;-65
2022/07/22 09:40:43;;;;;;;14.88;11.57;;;;;;;25.20;44.31;100012.88;5007171;28;20129;-64
2022/07/22 09:43:12;;;;;;;17.50;12.68;;;;;;;25.61;43.43;100009.38;5006931;28;20060;-64
2022/07/22 09:45:47;;;;;;;15.20;13.63;;;;;;;25.66;43.68;100012.44;5006301;28;20049;-65
2022/07/22 09:48:14;;;;;;;14.07;11.85;;;;;;;25.68;43.67;100003.16;5007051;28;20296;-65
2022/07/22 09:50:41;;;;;;;14.63;12.23;;;;;;;26.03;43.79;100006.53;5008548;28;20050;-65
2022/07/22 09:53:09;;;;;;;17.05;12.32;;;;;;;26.24;43.34;99995.22;5026056;28;20049;-65
2022/07/22 09:55:39;;;;;;;15.50;13.65;;;;;;;26.38;42.06;99993.63;5025900;28;20132;-65
2022/07/22 09:58:07;;;;;;;13.13;11.73;;;;;;;26.23;42.61;99990.81;5026031;28;20053;-65
2022/07/22 10:00:35;;;;;;;16.38;13.60;;;;;;;26.75;41.74;99981.38;5026214;28;20053;-65
2022/07/22 10:03:04;;;;;;;15.63;13.70;;;;;;;26.97;40.86;99969.78;5026312;28;20052;-64
2022/07/22 10:05:32;;;;;;;14.15;12.52;;;;;;;27.13;40.42;99970.72;5025314;28;20048;-64
2022/07/22 10:08:01;;;;;;;17.65;12.80;;;;;;;26.53;41.72;99973.03;5023976;28;20056;-65
2022/07/22 10:10:30;;;;;;;18.02;14.10;;;;;;;26.22;42.14;99966.66;5005776;28;20045;-65
2022/07/22 10:12:59;;;;;;;14.23;12.32;;;;;;;26.08;42.93;99960.09;5006124;28;20449;-65
2022/07/22 10:15:27;;;;;;;16.15;14.02;;;;;;;26.20;42.38;99955.19;5005450;28;20054;-65
2022/07/22 10:17:57;;;;;;;16.15;13.40;;;;;;;26.00;42.47;99968.22;5005805;28;20049;-64
2022/07/22 10:20:25;;;;;;;17.92;13.52;;;;;;;25.65;43.20;99968.38;5009026;28;21143;-65
2022/07/22 10:22:55;;;;;;;18.13;15.38;;;;;;;25.22;44.49;99967.66;5025306;28;20053;-65
2022/07/22 10:25:24;;;;;;;18.60;14.70;;;;;;;25.42;44.35;99970.03;5025179;28;20164;-64
2022/07/22 10:27:54;;;;;;;18.30;13.70;;;;;;;25.83;43.38;99967.38;5026025;28;20053;-64
2022/07/22 10:30:23;;;;;;;20.20;14.27;;;;;;;26.24;42.68;99965.47;5025097;28;20049;-64
2022/07/22 10:33:07;;;;;;;14.40;11.20;;;;;;;26.85;41.60;99976.63;5025766;28;20049;-66
2022/07/22 10:35:35;;;;;;;13.35;11.93;;;;;;;27.24;41.03;99969.50;5025728;28;20107;-66
2022/07/22 10:38:06;;;;;;;15.63;12.95;;;;;;;27.60;40.30;99962.44;5025976;28;20051;-66
2022/07/22 10:40:48;;;;;;;14.35;12.15;;;;;;;28.10;39.17;99965.59;5025746;28;20045;-66
2022/07/22 10:43:16;;;;;;;16.50;12.50;;;;;;;28.08;39.30;99964.09;5025869;28;20045;-65
2022/07/22 10:45:47;;;;;;;15.23;12.95;;;;;;;28.58;38.91;99968.00;5024894;28;20053;-66
2022/07/22 10:48:17;;;;;;;16.00;12.60;;;;;;;28.22;38.46;99953.25;5025144;28;20049;-65
2022/07/22 10:50:49;;;;;;;15.15;12.00;;;;;;;28.03;39.00;99954.66;5025507;28;20038;-65
2022/07/22 10:53:18;;;;;;;13.32;11.93;;;;;;;28.03;39.05;99954.66;5025404;28;20041;-65
2022/07/22 10:56:02;;;;;;;12.82;10.23;;;;;;;28.62;38.82;99947.56;5024889;28;20045;-66
2022/07/22 10:58:45;;;;;;;19.83;13.30;;;;;;;28.52;38.13;99941.59;5024997;28;20487;-66
2022/07/22 11:01:14;;;;;;;14.70;11.45;;;;;;;27.77;39.25;99944.19;5025456;28;20042;-66
2022/07/22 11:03:42;;;;;;;20.10;13.05;;;;;;;26.82;41.67;99940.94;5025371;28;20503;-65
2022/07/22 11:06:17;;;;;;;14.02;11.57;;;;;;;26.28;42.72;99947.03;5024739;28;20050;-66
2022/07/22 11:08:44;;;;;;;17.45;12.60;;;;;;;25.87;43.78;99950.69;5017202;28;20050;-65
2022/07/22 11:11:11;;;;;;;13.65;9.68;;;;;;;25.67;44.48;99960.97;5005273;28;20490;-65
2022/07/22 11:13:39;;;;;;;16.20;12.65;;;;;;;25.60;44.16;99956.41;5022266;28;20048;-66
2022/07/22 11:16:19;;;;;;;14.98;10.23;;;;;;;25.49;44.93;99947.59;5023806;28;20059;-65
2022/07/22 11:18:47;;;;;;;16.73;11.70;;;;;;;25.15;45.91;99953.09;5008073;28;20056;-65
2022/07/22 11:21:16;;;;;;;13.98;11.80;;;;;;;25.21;45.98;99943.56;5005393;28;20044;-65